sensor_id;sensor_type;location;lat;lon;timestamp;P1;durP1;ratioP1;P2;durP2;ratioP2
5060;SDS011;2549;52.128;21.068;2023-02-15T00:02:00;33.83;;;19.35;;
5060;SDS011;2549;52.128;21.068;2023-02-15T00:04:27;35.53;;;18.85;;
5060;SDS011;2549;52.128;21.068;2023-02-15T00:07:13;45.53;;;19.55;;
5060;SDS011;2549;52.128;21.068;2023-02-15T00:09:42;32.05;;;19.52;;
5060;SDS011;2549;52.128;21.068;2023-02-15T00:12:09;47.10;;;20.65;;
5060;SDS011;2549;52.128;21.068;2023-02-15T00:14:39;27.10;;;18.20;;
5060;SDS011;2549;52.128;21.068;2023-02-15T00:17:06;33.50;;;20.25;;
5060;SDS011;2549;52.128;21.068;2023-02-15T00:19:33;36.50;;;21.30;;
5060;SDS011;2549;52.128;21.068;2023-02-15T00:22:00;31.92;;;17.98;;
5060;SDS011;2549;52.128;21.068;2023-02-15T00:24:26;36.33;;;19.20;;
5060;SDS011;2549;52.128;21.068;2023-02-15T00:26:53;37.80;;;20.90;;
5060;SDS011;2549;52.128;21.068;2023-02-15T00:29:20;31.92;;;19.30;;
5060;SDS011;2549;52.128;21.068;2023-02-15T00:31:47;33.53;;;18.90;;
5060;SDS011;2549;52.128;21.068;2023-02-15T00:34:18;36.05;;;19.73;;
5060;SDS011;2549;52.128;21.068;2023-02-15T00:36:47;43.67;;;22.23;;
5060;SDS011;2549;52.128;21.068;2023-02-15T00:39:14;35.30;;;19.67;;
5060;SDS011;2549;52.128;21.068;2023-02-15T00:41:42;40.38;;;19.70;;
5060;SDS011;2549;52.128;21.068;2023-02-15T00:44:09;33.03;;;19.75;;
5060;SDS011;2549;52.128;21.068;2023-02-15T00:46:36;36.05;;;20.15;;
5060;SDS011;2549;52.128;21.068;2023-02-15T00:49:03;37.17;;;19.70;;
5060;SDS011;2549;52.128;21.068;2023-02-15T00:51:31;34.60;;;19.23;;
5060;SDS011;2549;52.128;21.068;2023-02-15T00:53:58;37.67;;;20.67;;
5060;SDS011;2549;52.128;21.068;2023-02-15T00:56:25;36.03;;;20.30;;
5060;SDS011;2549;52.128;21.068;2023-02-15T00:58:54;31.60;;;19.30;;
5060;SDS011;2549;52.128;21.068;2023-02-15T01:01:21;35.83;;;22.17;;
5060;SDS011;2549;52.128;21.068;2023-02-15T01:03:49;33.05;;;20.00;;
5060;SDS011;2549;52.128;21.068;2023-02-15T01:06:16;38.58;;;21.65;;
5060;SDS011;2549;52.128;21.068;2023-02-15T01:08:44;36.53;;;20.60;;
5060;SDS011;2549;52.128;21.068;2023-02-15T01:11:13;37.72;;;20.45;;
5060;SDS011;2549;52.128;21.068;2023-02-15T01:13:41;35.88;;;21.20;;
5060;SDS011;2549;52.128;21.068;2023-02-15T01:16:08;35.60;;;21.40;;
5060;SDS011;2549;52.128;21.068;2023-02-15T01:18:35;40.53;;;21.80;;
5060;SDS011;2549;52.128;21.068;2023-02-15T01:21:24;32.80;;;19.45;;
5060;SDS011;2549;52.128;21.068;2023-02-15T01:23:50;38.78;;;19.55;;
5060;SDS011;2549;52.128;21.068;2023-02-15T01:26:16;39.35;;;20.90;;
5060;SDS011;2549;52.128;21.068;2023-02-15T01:28:44;39.95;;;20.23;;
5060;SDS011;2549;52.128;21.068;2023-02-15T01:31:13;33.47;;;18.88;;
5060;SDS011;2549;52.128;21.068;2023-02-15T01:33:41;34.63;;;20.33;;
5060;SDS011;2549;52.128;21.068;2023-02-15T01:36:08;39.92;;;21.23;;
5060;SDS011;2549;52.128;21.068;2023-02-15T01:38:36;42.15;;;22.10;;
5060;SDS011;2549;52.128;21.068;2023-02-15T01:41:03;34.58;;;19.60;;
5060;SDS011;2549;52.128;21.068;2023-02-15T01:43:52;39.85;;;21.58;;
5060;SDS011;2549;52.128;21.068;2023-02-15T01:46:26;42.08;;;20.83;;
5060;SDS011;2549;52.128;21.068;2023-02-15T01:49:02;47.47;;;21.95;;
5060;SDS011;2549;52.128;21.068;2023-02-15T01:51:41;37.22;;;19.92;;
5060;SDS011;2549;52.128;21.068;2023-02-15T01:56:42;30.90;;;18.25;;
5060;SDS011;2549;52.128;21.068;2023-02-15T01:59:11;39.92;;;20.55;;
5060;SDS011;2549;52.128;21.068;2023-02-15T02:01:42;33.05;;;18.92;;
5060;SDS011;2549;52.128;21.068;2023-02-15T02:07:04;32.45;;;20.52;;
5060;SDS011;2549;52.128;21.068;2023-02-15T02:09:32;38.17;;;21.52;;
5060;SDS011;2549;52.128;21.068;2023-02-15T02:11:59;35.53;;;19.50;;
5060;SDS011;2549;52.128;21.068;2023-02-15T02:14:27;39.75;;;20.55;;
5060;SDS011;2549;52.128;21.068;2023-02-15T02:22:20;36.15;;;19.65;;
5060;SDS011;2549;52.128;21.068;2023-02-15T02:28:26;37.60;;;19.95;;
5060;SDS011;2549;52.128;21.068;2023-02-15T02:34:16;36.28;;;18.95;;
5060;SDS011;2549;52.128;21.068;2023-02-15T02:42:40;46.75;;;19.92;;
5060;SDS011;2549;52.128;21.068;2023-02-15T02:47:41;37.17;;;19.60;;
5060;SDS011;2549;52.128;21.068;2023-02-15T02:50:17;43.03;;;20.48;;
5060;SDS011;2549;52.128;21.068;2023-02-15T02:52:49;38.58;;;19.27;;
5060;SDS011;2549;52.128;21.068;2023-02-15T02:55:19;34.17;;;18.80;;
5060;SDS011;2549;52.128;21.068;2023-02-15T02:58:06;36.08;;;19.33;;
5060;SDS011;2549;52.128;21.068;2023-02-15T03:00:56;37.67;;;19.30;;
5060;SDS011;2549;52.128;21.068;2023-02-15T03:03:34;34.72;;;19.70;;
5060;SDS011;2549;52.128;21.068;2023-02-15T03:06:06;34.40;;;17.88;;
5060;SDS011;2549;52.128;21.068;2023-02-15T03:08:48;28.02;;;17.38;;
5060;SDS011;2549;52.128;21.068;2023-02-15T03:11:22;38.10;;;18.95;;
5060;SDS011;2549;52.128;21.068;2023-02-15T03:13:48;36.95;;;18.52;;
5060;SDS011;2549;52.128;21.068;2023-02-15T03:16:16;30.52;;;18.27;;
5060;SDS011;2549;52.128;21.068;2023-02-15T03:19:00;30.60;;;17.80;;
5060;SDS011;2549;52.128;21.068;2023-02-15T03:24:07;41.75;;;19.63;;
5060;SDS011;2549;52.128;21.068;2023-02-15T03:26:42;39.05;;;19.90;;
5060;SDS011;2549;52.128;21.068;2023-02-15T03:29:12;43.03;;;19.13;;
5060;SDS011;2549;52.128;21.068;2023-02-15T03:31:42;35.38;;;19.30;;
5060;SDS011;2549;52.128;21.068;2023-02-15T03:34:12;33.30;;;20.00;;
5060;SDS011;2549;52.128;21.068;2023-02-15T03:41:55;36.30;;;20.67;;
5060;SDS011;2549;52.128;21.068;2023-02-15T03:44:31;35.05;;;17.20;;
5060;SDS011;2549;52.128;21.068;2023-02-15T03:47:06;33.55;;;18.70;;
5060;SDS011;2549;52.128;21.068;2023-02-15T03:52:11;34.58;;;18.67;;
5060;SDS011;2549;52.128;21.068;2023-02-15T03:54:41;37.63;;;20.23;;
5060;SDS011;2549;52.128;21.068;2023-02-15T03:57:14;31.65;;;17.45;;
5060;SDS011;2549;52.128;21.068;2023-02-15T04:00:04;36.75;;;18.00;;
5060;SDS011;2549;52.128;21.068;2023-02-15T04:05:50;36.53;;;18.50;;
5060;SDS011;2549;52.128;21.068;2023-02-15T04:08:17;28.30;;;17.63;;
5060;SDS011;2549;52.128;21.068;2023-02-15T04:10:44;30.23;;;16.63;;
5060;SDS011;2549;52.128;21.068;2023-02-15T04:13:29;31.25;;;17.70;;
5060;SDS011;2549;52.128;21.068;2023-02-15T04:15:57;26.60;;;16.17;;
5060;SDS011;2549;52.128;21.068;2023-02-15T04:21:22;31.60;;;17.23;;
5060;SDS011;2549;52.128;21.068;2023-02-15T04:24:09;26.67;;;15.80;;
5060;SDS011;2549;52.128;21.068;2023-02-15T04:26:55;27.08;;;12.93;;
5060;SDS011;2549;52.128;21.068;2023-02-15T04:29:22;25.73;;;14.63;;
5060;SDS011;2549;52.128;21.068;2023-02-15T04:31:50;22.58;;;15.35;;
5060;SDS011;2549;52.128;21.068;2023-02-15T04:34:18;25.90;;;13.63;;
5060;SDS011;2549;52.128;21.068;2023-02-15T04:36:45;23.27;;;13.93;;
5060;SDS011;2549;52.128;21.068;2023-02-15T04:39:13;23.15;;;14.05;;
5060;SDS011;2549;52.128;21.068;2023-02-15T04:41:41;22.33;;;12.98;;
5060;SDS011;2549;52.128;21.068;2023-02-15T04:44:08;28.20;;;14.88;;
5060;SDS011;2549;52.128;21.068;2023-02-15T04:46:35;26.35;;;15.07;;
5060;SDS011;2549;52.128;21.068;2023-02-15T04:49:02;28.13;;;14.82;;
5060;SDS011;2549;52.128;21.068;2023-02-15T04:51:29;26.23;;;14.75;;
5060;SDS011;2549;52.128;21.068;2023-02-15T04:53:56;19.15;;;12.68;;
5060;SDS011;2549;52.128;21.068;2023-02-15T04:56:23;21.95;;;13.88;;
5060;SDS011;2549;52.128;21.068;2023-02-15T04:58:50;35.65;;;14.45;;
5060;SDS011;2549;52.128;21.068;2023-02-15T05:01:17;25.05;;;13.63;;
5060;SDS011;2549;52.128;21.068;2023-02-15T05:03:44;30.13;;;14.27;;
5060;SDS011;2549;52.128;21.068;2023-02-15T05:06:11;27.02;;;14.95;;
5060;SDS011;2549;52.128;21.068;2023-02-15T05:08:37;27.67;;;15.73;;
5060;SDS011;2549;52.128;21.068;2023-02-15T05:11:04;26.77;;;14.98;;
5060;SDS011;2549;52.128;21.068;2023-02-15T05:13:31;26.27;;;14.43;;
5060;SDS011;2549;52.128;21.068;2023-02-15T05:15:58;23.98;;;15.05;;
5060;SDS011;2549;52.128;21.068;2023-02-15T05:18:25;22.00;;;13.18;;
5060;SDS011;2549;52.128;21.068;2023-02-15T05:20:52;22.70;;;13.10;;
5060;SDS011;2549;52.128;21.068;2023-02-15T05:23:19;27.15;;;13.40;;
5060;SDS011;2549;52.128;21.068;2023-02-15T05:25:47;24.33;;;12.10;;
5060;SDS011;2549;52.128;21.068;2023-02-15T05:28:36;25.15;;;13.88;;
5060;SDS011;2549;52.128;21.068;2023-02-15T05:31:10;19.13;;;12.40;;
5060;SDS011;2549;52.128;21.068;2023-02-15T05:33:38;23.98;;;12.60;;
5060;SDS011;2549;52.128;21.068;2023-02-15T05:36:05;25.58;;;13.18;;
5060;SDS011;2549;52.128;21.068;2023-02-15T05:38:33;24.33;;;14.68;;
5060;SDS011;2549;52.128;21.068;2023-02-15T05:41:00;31.98;;;15.32;;
5060;SDS011;2549;52.128;21.068;2023-02-15T05:43:27;18.83;;;13.15;;
5060;SDS011;2549;52.128;21.068;2023-02-15T05:45:54;24.63;;;14.23;;
5060;SDS011;2549;52.128;21.068;2023-02-15T05:48:22;21.40;;;13.93;;
5060;SDS011;2549;52.128;21.068;2023-02-15T05:51:00;21.27;;;12.60;;
5060;SDS011;2549;52.128;21.068;2023-02-15T05:53:32;28.33;;;13.70;;
5060;SDS011;2549;52.128;21.068;2023-02-15T05:56:01;26.63;;;13.68;;
5060;SDS011;2549;52.128;21.068;2023-02-15T05:58:30;26.40;;;11.88;;
5060;SDS011;2549;52.128;21.068;2023-02-15T06:00:59;30.20;;;12.50;;
5060;SDS011;2549;52.128;21.068;2023-02-15T06:03:26;25.15;;;14.77;;
5060;SDS011;2549;52.128;21.068;2023-02-15T06:05:54;22.20;;;12.27;;
5060;SDS011;2549;52.128;21.068;2023-02-15T06:08:21;23.25;;;12.35;;
5060;SDS011;2549;52.128;21.068;2023-02-15T06:10:48;23.15;;;12.43;;
5060;SDS011;2549;52.128;21.068;2023-02-15T06:13:15;24.27;;;12.82;;
5060;SDS011;2549;52.128;21.068;2023-02-15T06:15:42;29.45;;;13.23;;
5060;SDS011;2549;52.128;21.068;2023-02-15T06:18:09;30.83;;;12.10;;
5060;SDS011;2549;52.128;21.068;2023-02-15T06:20:36;25.83;;;12.25;;
5060;SDS011;2549;52.128;21.068;2023-02-15T06:23:02;23.55;;;11.18;;
5060;SDS011;2549;52.128;21.068;2023-02-15T06:25:29;25.27;;;11.70;;
5060;SDS011;2549;52.128;21.068;2023-02-15T06:27:56;25.48;;;12.27;;
5060;SDS011;2549;52.128;21.068;2023-02-15T06:30:23;27.05;;;12.75;;
5060;SDS011;2549;52.128;21.068;2023-02-15T06:32:50;23.95;;;12.90;;
5060;SDS011;2549;52.128;21.068;2023-02-15T06:35:17;19.23;;;11.35;;
5060;SDS011;2549;52.128;21.068;2023-02-15T06:37:44;25.42;;;12.55;;
5060;SDS011;2549;52.128;21.068;2023-02-15T06:40:13;27.95;;;13.88;;
5060;SDS011;2549;52.128;21.068;2023-02-15T06:42:43;26.67;;;12.65;;
5060;SDS011;2549;52.128;21.068;2023-02-15T06:45:10;19.90;;;12.45;;
5060;SDS011;2549;52.128;21.068;2023-02-15T06:47:37;18.80;;;12.15;;
5060;SDS011;2549;52.128;21.068;2023-02-15T06:50:05;26.20;;;12.55;;
5060;SDS011;2549;52.128;21.068;2023-02-15T06:52:32;19.42;;;10.30;;
5060;SDS011;2549;52.128;21.068;2023-02-15T06:54:59;24.65;;;12.60;;
5060;SDS011;2549;52.128;21.068;2023-02-15T06:57:26;22.20;;;13.23;;
5060;SDS011;2549;52.128;21.068;2023-02-15T06:59:53;22.73;;;12.73;;
5060;SDS011;2549;52.128;21.068;2023-02-15T07:02:20;28.23;;;13.50;;
5060;SDS011;2549;52.128;21.068;2023-02-15T07:04:47;32.90;;;13.55;;
5060;SDS011;2549;52.128;21.068;2023-02-15T07:07:14;25.80;;;13.35;;
5060;SDS011;2549;52.128;21.068;2023-02-15T07:09:40;26.17;;;13.63;;
5060;SDS011;2549;52.128;21.068;2023-02-15T07:12:08;28.60;;;13.32;;
5060;SDS011;2549;52.128;21.068;2023-02-15T07:14:54;29.90;;;15.52;;
5060;SDS011;2549;52.128;21.068;2023-02-15T07:17:21;27.35;;;13.73;;
5060;SDS011;2549;52.128;21.068;2023-02-15T07:20:08;26.65;;;13.85;;
5060;SDS011;2549;52.128;21.068;2023-02-15T07:22:37;24.65;;;13.48;;
5060;SDS011;2549;52.128;21.068;2023-02-15T07:25:05;29.77;;;13.48;;
5060;SDS011;2549;52.128;21.068;2023-02-15T07:27:34;23.02;;;12.98;;
5060;SDS011;2549;52.128;21.068;2023-02-15T07:30:01;29.65;;;15.00;;
5060;SDS011;2549;52.128;21.068;2023-02-15T07:32:29;26.67;;;13.55;;
5060;SDS011;2549;52.128;21.068;2023-02-15T07:34:57;31.80;;;12.70;;
5060;SDS011;2549;52.128;21.068;2023-02-15T07:37:25;22.90;;;12.57;;
5060;SDS011;2549;52.128;21.068;2023-02-15T07:39:52;21.30;;;12.25;;
5060;SDS011;2549;52.128;21.068;2023-02-15T07:42:19;23.00;;;13.13;;
5060;SDS011;2549;52.128;21.068;2023-02-15T07:44:47;17.95;;;10.65;;
5060;SDS011;2549;52.128;21.068;2023-02-15T07:47:14;17.73;;;9.05;;
5060;SDS011;2549;52.128;21.068;2023-02-15T07:49:41;18.30;;;10.32;;
5060;SDS011;2549;52.128;21.068;2023-02-15T07:52:07;17.08;;;9.93;;
5060;SDS011;2549;52.128;21.068;2023-02-15T07:54:34;18.70;;;10.07;;
5060;SDS011;2549;52.128;21.068;2023-02-15T07:57:01;20.80;;;10.32;;
5060;SDS011;2549;52.128;21.068;2023-02-15T07:59:28;17.80;;;8.85;;
5060;SDS011;2549;52.128;21.068;2023-02-15T08:01:55;21.13;;;10.07;;
5060;SDS011;2549;52.128;21.068;2023-02-15T08:04:23;19.80;;;9.82;;
5060;SDS011;2549;52.128;21.068;2023-02-15T08:06:53;23.02;;;9.52;;
5060;SDS011;2549;52.128;21.068;2023-02-15T08:09:21;14.23;;;8.60;;
5060;SDS011;2549;52.128;21.068;2023-02-15T08:11:48;14.57;;;10.00;;
5060;SDS011;2549;52.128;21.068;2023-02-15T08:14:16;17.13;;;10.05;;
5060;SDS011;2549;52.128;21.068;2023-02-15T08:16:49;19.23;;;10.55;;
5060;SDS011;2549;52.128;21.068;2023-02-15T08:19:20;21.00;;;11.30;;
5060;SDS011;2549;52.128;21.068;2023-02-15T08:21:50;18.80;;;10.82;;
5060;SDS011;2549;52.128;21.068;2023-02-15T08:24:19;25.85;;;11.80;;
5060;SDS011;2549;52.128;21.068;2023-02-15T08:26:47;18.75;;;11.15;;
5060;SDS011;2549;52.128;21.068;2023-02-15T08:29:17;24.88;;;12.90;;
5060;SDS011;2549;52.128;21.068;2023-02-15T08:31:45;21.00;;;12.48;;
5060;SDS011;2549;52.128;21.068;2023-02-15T08:34:14;25.92;;;13.23;;
5060;SDS011;2549;52.128;21.068;2023-02-15T08:36:43;25.77;;;13.82;;
5060;SDS011;2549;52.128;21.068;2023-02-15T08:39:11;26.55;;;13.95;;
5060;SDS011;2549;52.128;21.068;2023-02-15T08:41:39;23.73;;;13.43;;
5060;SDS011;2549;52.128;21.068;2023-02-15T08:44:09;25.50;;;14.25;;
5060;SDS011;2549;52.128;21.068;2023-02-15T08:46:40;31.45;;;15.55;;
5060;SDS011;2549;52.128;21.068;2023-02-15T08:49:09;32.72;;;15.60;;
5060;SDS011;2549;52.128;21.068;2023-02-15T08:51:39;28.75;;;14.60;;
5060;SDS011;2549;52.128;21.068;2023-02-15T08:54:11;25.70;;;12.98;;
5060;SDS011;2549;52.128;21.068;2023-02-15T08:56:40;25.85;;;12.50;;
5060;SDS011;2549;52.128;21.068;2023-02-15T08:59:12;26.25;;;12.43;;
5060;SDS011;2549;52.128;21.068;2023-02-15T09:01:43;28.55;;;13.95;;
5060;SDS011;2549;52.128;21.068;2023-02-15T09:04:10;21.85;;;12.95;;
5060;SDS011;2549;52.128;21.068;2023-02-15T09:06:39;24.98;;;13.18;;
5060;SDS011;2549;52.128;21.068;2023-02-15T09:09:07;27.33;;;14.10;;
5060;SDS011;2549;52.128;21.068;2023-02-15T09:11:35;33.50;;;14.10;;
5060;SDS011;2549;52.128;21.068;2023-02-15T09:14:05;26.73;;;14.70;;
5060;SDS011;2549;52.128;21.068;2023-02-15T09:16:37;35.08;;;14.63;;
5060;SDS011;2549;52.128;21.068;2023-02-15T09:19:04;26.48;;;13.73;;
5060;SDS011;2549;52.128;21.068;2023-02-15T09:21:33;34.25;;;14.70;;
5060;SDS011;2549;52.128;21.068;2023-02-15T09:24:03;32.78;;;14.43;;
5060;SDS011;2549;52.128;21.068;2023-02-15T09:26:32;27.08;;;13.82;;
5060;SDS011;2549;52.128;21.068;2023-02-15T09:29:00;30.63;;;13.88;;
5060;SDS011;2549;52.128;21.068;2023-02-15T09:31:30;30.55;;;14.65;;
5060;SDS011;2549;52.128;21.068;2023-02-15T09:34:00;29.30;;;14.20;;
5060;SDS011;2549;52.128;21.068;2023-02-15T09:36:28;31.65;;;12.80;;
5060;SDS011;2549;52.128;21.068;2023-02-15T09:39:08;28.50;;;10.48;;
5060;SDS011;2549;52.128;21.068;2023-02-15T09:55:51;19.38;;;10.68;;
5060;SDS011;2549;52.128;21.068;2023-02-15T10:04:19;22.20;;;12.07;;
5060;SDS011;2549;52.128;21.068;2023-02-15T10:09:59;19.67;;;10.75;;
5060;SDS011;2549;52.128;21.068;2023-02-15T10:26:22;21.83;;;11.80;;
5060;SDS011;2549;52.128;21.068;2023-02-15T10:31:41;20.30;;;10.50;;
5060;SDS011;2549;52.128;21.068;2023-02-15T10:34:16;23.05;;;11.32;;
5060;SDS011;2549;52.128;21.068;2023-02-15T10:47:50;27.10;;;10.75;;
5060;SDS011;2549;52.128;21.068;2023-02-15T10:55:55;15.35;;;10.35;;
5060;SDS011;2549;52.128;21.068;2023-02-15T10:58:53;20.83;;;11.15;;
5060;SDS011;2549;52.128;21.068;2023-02-15T11:04:07;22.05;;;11.23;;
5060;SDS011;2549;52.128;21.068;2023-02-15T11:06:55;23.35;;;12.32;;
5060;SDS011;2549;52.128;21.068;2023-02-15T11:09:28;28.75;;;13.20;;
5060;SDS011;2549;52.128;21.068;2023-02-15T11:12:02;21.23;;;11.10;;
5060;SDS011;2549;52.128;21.068;2023-02-15T11:15:27;23.40;;;10.70;;
5060;SDS011;2549;52.128;21.068;2023-02-15T11:17:35;19.55;;;10.85;;
5060;SDS011;2549;52.128;21.068;2023-02-15T11:20:19;21.45;;;12.43;;
5060;SDS011;2549;52.128;21.068;2023-02-15T11:22:52;23.98;;;12.50;;
5060;SDS011;2549;52.128;21.068;2023-02-15T11:25:30;23.33;;;12.50;;
5060;SDS011;2549;52.128;21.068;2023-02-15T11:28:00;21.67;;;12.75;;
5060;SDS011;2549;52.128;21.068;2023-02-15T11:30:38;23.80;;;13.90;;
5060;SDS011;2549;52.128;21.068;2023-02-15T11:33:15;35.53;;;12.80;;
5060;SDS011;2549;52.128;21.068;2023-02-15T11:35:49;25.20;;;14.45;;
5060;SDS011;2549;52.128;21.068;2023-02-15T11:38:18;30.95;;;14.27;;
5060;SDS011;2549;52.128;21.068;2023-02-15T11:40:49;24.40;;;12.02;;
5060;SDS011;2549;52.128;21.068;2023-02-15T11:43:31;25.90;;;14.25;;
5060;SDS011;2549;52.128;21.068;2023-02-15T11:46:18;25.00;;;12.60;;
5060;SDS011;2549;52.128;21.068;2023-02-15T11:48:47;25.95;;;12.52;;
5060;SDS011;2549;52.128;21.068;2023-02-15T11:51:16;26.73;;;13.55;;
5060;SDS011;2549;52.128;21.068;2023-02-15T11:53:48;26.30;;;14.23;;
5060;SDS011;2549;52.128;21.068;2023-02-15T11:56:17;26.85;;;14.23;;
5060;SDS011;2549;52.128;21.068;2023-02-15T11:58:51;26.15;;;13.80;;
5060;SDS011;2549;52.128;21.068;2023-02-15T12:04:01;20.38;;;12.25;;
5060;SDS011;2549;52.128;21.068;2023-02-15T12:06:54;27.42;;;13.43;;
5060;SDS011;2549;52.128;21.068;2023-02-15T12:12:38;33.15;;;15.30;;
5060;SDS011;2549;52.128;21.068;2023-02-15T12:15:06;27.20;;;14.38;;
5060;SDS011;2549;52.128;21.068;2023-02-15T12:17:37;25.58;;;14.85;;
5060;SDS011;2549;52.128;21.068;2023-02-15T12:20:07;31.77;;;14.15;;
5060;SDS011;2549;52.128;21.068;2023-02-15T12:22:51;26.90;;;13.70;;
5060;SDS011;2549;52.128;21.068;2023-02-15T12:25:21;30.33;;;14.90;;
5060;SDS011;2549;52.128;21.068;2023-02-15T12:27:53;30.67;;;15.63;;
5060;SDS011;2549;52.128;21.068;2023-02-15T12:30:30;31.27;;;14.63;;
5060;SDS011;2549;52.128;21.068;2023-02-15T12:35:39;29.35;;;14.90;;
5060;SDS011;2549;52.128;21.068;2023-02-15T12:40:37;34.90;;;17.20;;
5060;SDS011;2549;52.128;21.068;2023-02-15T12:43:04;30.42;;;14.65;;
5060;SDS011;2549;52.128;21.068;2023-02-15T12:45:50;27.85;;;15.95;;
5060;SDS011;2549;52.128;21.068;2023-02-15T12:48:17;28.23;;;15.85;;
5060;SDS011;2549;52.128;21.068;2023-02-15T12:50:46;32.90;;;15.13;;
5060;SDS011;2549;52.128;21.068;2023-02-15T12:55:56;28.80;;;14.10;;
5060;SDS011;2549;52.128;21.068;2023-02-15T12:58:34;27.55;;;13.82;;
5060;SDS011;2549;52.128;21.068;2023-02-15T13:01:12;26.13;;;14.05;;
5060;SDS011;2549;52.128;21.068;2023-02-15T13:06:27;25.63;;;13.40;;
5060;SDS011;2549;52.128;21.068;2023-02-15T13:08:58;31.50;;;15.82;;
5060;SDS011;2549;52.128;21.068;2023-02-15T13:11:51;27.90;;;14.95;;
5060;SDS011;2549;52.128;21.068;2023-02-15T13:14:20;31.70;;;15.48;;
5060;SDS011;2549;52.128;21.068;2023-02-15T13:16:52;28.33;;;14.98;;
5060;SDS011;2549;52.128;21.068;2023-02-15T13:19:41;28.83;;;16.15;;
5060;SDS011;2549;52.128;21.068;2023-02-15T13:22:16;33.90;;;17.33;;
5060;SDS011;2549;52.128;21.068;2023-02-15T13:24:48;31.15;;;15.60;;
5060;SDS011;2549;52.128;21.068;2023-02-15T13:27:23;29.80;;;15.65;;
5060;SDS011;2549;52.128;21.068;2023-02-15T13:29:56;32.25;;;17.48;;
5060;SDS011;2549;52.128;21.068;2023-02-15T13:34:58;31.88;;;17.05;;
5060;SDS011;2549;52.128;21.068;2023-02-15T13:40:13;37.47;;;17.38;;
5060;SDS011;2549;52.128;21.068;2023-02-15T13:42:53;35.88;;;18.20;;
5060;SDS011;2549;52.128;21.068;2023-02-15T13:45:44;35.20;;;18.25;;
5060;SDS011;2549;52.128;21.068;2023-02-15T13:59:44;34.58;;;19.05;;
5060;SDS011;2549;52.128;21.068;2023-02-15T14:05:15;34.38;;;19.25;;
5060;SDS011;2549;52.128;21.068;2023-02-15T14:30:17;36.25;;;19.02;;
5060;SDS011;2549;52.128;21.068;2023-02-15T14:35:34;38.13;;;18.15;;
5060;SDS011;2549;52.128;21.068;2023-02-15T14:41:02;32.45;;;16.95;;
5060;SDS011;2549;52.128;21.068;2023-02-15T14:54:06;32.67;;;15.27;;
5060;SDS011;2549;52.128;21.068;2023-02-15T14:56:33;36.75;;;16.30;;
5060;SDS011;2549;52.128;21.068;2023-02-15T14:59:22;38.97;;;15.35;;
5060;SDS011;2549;52.128;21.068;2023-02-15T15:02:00;36.88;;;15.80;;
5060;SDS011;2549;52.128;21.068;2023-02-15T15:04:39;30.83;;;17.30;;
5060;SDS011;2549;52.128;21.068;2023-02-15T15:10:33;38.85;;;17.52;;
5060;SDS011;2549;52.128;21.068;2023-02-15T15:31:04;34.95;;;16.40;;
5060;SDS011;2549;52.128;21.068;2023-02-15T15:33:58;36.65;;;16.92;;
5060;SDS011;2549;52.128;21.068;2023-02-15T15:50:46;26.75;;;14.15;;
5060;SDS011;2549;52.128;21.068;2023-02-15T15:53:20;34.35;;;15.90;;
5060;SDS011;2549;52.128;21.068;2023-02-15T15:55:50;35.20;;;15.32;;
5060;SDS011;2549;52.128;21.068;2023-02-15T15:58:21;27.45;;;14.10;;
5060;SDS011;2549;52.128;21.068;2023-02-15T16:00:50;31.13;;;14.10;;
5060;SDS011;2549;52.128;21.068;2023-02-15T16:03:27;30.23;;;16.88;;
5060;SDS011;2549;52.128;21.068;2023-02-15T16:05:54;30.67;;;14.15;;
5060;SDS011;2549;52.128;21.068;2023-02-15T16:10:56;27.90;;;14.57;;
5060;SDS011;2549;52.128;21.068;2023-02-15T16:13:24;33.75;;;16.48;;
5060;SDS011;2549;52.128;21.068;2023-02-15T16:15:53;26.58;;;14.93;;
5060;SDS011;2549;52.128;21.068;2023-02-15T16:18:23;33.75;;;15.38;;
5060;SDS011;2549;52.128;21.068;2023-02-15T16:20:53;26.73;;;13.80;;
5060;SDS011;2549;52.128;21.068;2023-02-15T16:26:02;28.73;;;15.85;;
5060;SDS011;2549;52.128;21.068;2023-02-15T16:28:48;23.92;;;13.02;;
5060;SDS011;2549;52.128;21.068;2023-02-15T16:31:17;28.15;;;14.10;;
5060;SDS011;2549;52.128;21.068;2023-02-15T16:33:45;27.77;;;14.63;;
5060;SDS011;2549;52.128;21.068;2023-02-15T16:36:19;34.22;;;14.90;;
5060;SDS011;2549;52.128;21.068;2023-02-15T16:41:25;30.65;;;14.90;;
5060;SDS011;2549;52.128;21.068;2023-02-15T16:43:54;33.50;;;14.63;;
5060;SDS011;2549;52.128;21.068;2023-02-15T16:48:55;27.25;;;14.52;;
5060;SDS011;2549;52.128;21.068;2023-02-15T16:51:28;27.77;;;15.63;;
5060;SDS011;2549;52.128;21.068;2023-02-15T16:53:59;35.05;;;16.50;;
5060;SDS011;2549;52.128;21.068;2023-02-15T16:56:39;40.67;;;16.50;;
5060;SDS011;2549;52.128;21.068;2023-02-15T16:59:15;31.77;;;16.83;;
5060;SDS011;2549;52.128;21.068;2023-02-15T17:01:50;27.67;;;15.35;;
5060;SDS011;2549;52.128;21.068;2023-02-15T17:09:25;30.95;;;15.68;;
5060;SDS011;2549;52.128;21.068;2023-02-15T17:11:53;34.47;;;14.88;;
5060;SDS011;2549;52.128;21.068;2023-02-15T17:14:20;30.52;;;15.45;;
5060;SDS011;2549;52.128;21.068;2023-02-15T17:16:53;28.88;;;14.25;;
5060;SDS011;2549;52.128;21.068;2023-02-15T17:19:29;32.38;;;17.00;;
5060;SDS011;2549;52.128;21.068;2023-02-15T17:21:59;29.80;;;15.57;;
5060;SDS011;2549;52.128;21.068;2023-02-15T17:27:35;27.40;;;16.38;;
5060;SDS011;2549;52.128;21.068;2023-02-15T17:30:00;30.92;;;15.10;;
5060;SDS011;2549;52.128;21.068;2023-02-15T17:32:35;33.38;;;15.38;;
5060;SDS011;2549;52.128;21.068;2023-02-15T17:35:18;30.60;;;16.10;;
5060;SDS011;2549;52.128;21.068;2023-02-15T17:37:48;32.45;;;16.77;;
5060;SDS011;2549;52.128;21.068;2023-02-15T17:42:55;33.40;;;16.92;;
5060;SDS011;2549;52.128;21.068;2023-02-15T17:45:22;34.40;;;16.30;;
5060;SDS011;2549;52.128;21.068;2023-02-15T17:47:55;36.38;;;17.25;;
5060;SDS011;2549;52.128;21.068;2023-02-15T17:50:25;29.48;;;15.98;;
5060;SDS011;2549;52.128;21.068;2023-02-15T17:52:53;32.20;;;17.25;;
5060;SDS011;2549;52.128;21.068;2023-02-15T17:55:23;31.92;;;16.45;;
5060;SDS011;2549;52.128;21.068;2023-02-15T17:58:16;33.10;;;17.15;;
5060;SDS011;2549;52.128;21.068;2023-02-15T18:00:45;30.52;;;16.52;;
5060;SDS011;2549;52.128;21.068;2023-02-15T18:03:45;37.65;;;18.15;;
5060;SDS011;2549;52.128;21.068;2023-02-15T18:06:33;33.10;;;16.05;;
5060;SDS011;2549;52.128;21.068;2023-02-15T18:09:22;41.00;;;17.98;;
5060;SDS011;2549;52.128;21.068;2023-02-15T18:14:57;33.58;;;18.15;;
5060;SDS011;2549;52.128;21.068;2023-02-15T18:17:27;37.15;;;19.67;;
5060;SDS011;2549;52.128;21.068;2023-02-15T18:20:00;29.00;;;16.70;;
5060;SDS011;2549;52.128;21.068;2023-02-15T18:22:30;36.25;;;18.40;;
5060;SDS011;2549;52.128;21.068;2023-02-15T18:24:58;45.42;;;19.52;;
5060;SDS011;2549;52.128;21.068;2023-02-15T18:27:25;41.53;;;17.77;;
5060;SDS011;2549;52.128;21.068;2023-02-15T18:29:52;32.45;;;17.63;;
5060;SDS011;2549;52.128;21.068;2023-02-15T18:32:21;37.72;;;17.10;;
5060;SDS011;2549;52.128;21.068;2023-02-15T18:34:54;35.40;;;17.70;;
5060;SDS011;2549;52.128;21.068;2023-02-15T18:37:22;39.60;;;18.55;;
5060;SDS011;2549;52.128;21.068;2023-02-15T18:39:53;33.58;;;18.98;;
5060;SDS011;2549;52.128;21.068;2023-02-15T18:42:30;35.72;;;18.67;;
5060;SDS011;2549;52.128;21.068;2023-02-15T18:45:00;32.70;;;19.00;;
5060;SDS011;2549;52.128;21.068;2023-02-15T18:47:38;35.00;;;18.75;;
5060;SDS011;2549;52.128;21.068;2023-02-15T18:50:06;33.90;;;18.55;;
5060;SDS011;2549;52.128;21.068;2023-02-15T18:52:34;43.80;;;18.33;;
5060;SDS011;2549;52.128;21.068;2023-02-15T18:55:03;37.85;;;15.93;;
5060;SDS011;2549;52.128;21.068;2023-02-15T18:57:39;35.97;;;18.63;;